sensor_id;sensor_type;location;lat;lon;timestamp;P1;durP1;ratioP1;P2;durP2;ratioP2
31652;SDS011;18261;53.648;9.910;2022-10-17T00:02:05;15.68;;;5.10;;
31652;SDS011;18261;53.648;9.910;2022-10-17T00:04:31;16.30;;;5.85;;
31652;SDS011;18261;53.648;9.910;2022-10-17T00:06:57;16.25;;;5.90;;
31652;SDS011;18261;53.648;9.910;2022-10-17T00:09:23;18.40;;;5.53;;
31652;SDS011;18261;53.648;9.910;2022-10-17T00:11:49;14.18;;;5.45;;
31652;SDS011;18261;53.648;9.910;2022-10-17T00:14:15;18.02;;;5.93;;
31652;SDS011;18261;53.648;9.910;2022-10-17T00:16:41;12.32;;;4.82;;
31652;SDS011;18261;53.648;9.910;2022-10-17T00:19:07;15.00;;;5.40;;
31652;SDS011;18261;53.648;9.910;2022-10-17T00:21:33;20.23;;;5.07;;
31652;SDS011;18261;53.648;9.910;2022-10-17T00:23:59;19.92;;;5.65;;
31652;SDS011;18261;53.648;9.910;2022-10-17T00:26:25;17.58;;;5.50;;
31652;SDS011;18261;53.648;9.910;2022-10-17T00:28:53;15.93;;;4.93;;
31652;SDS011;18261;53.648;9.910;2022-10-17T00:31:19;14.15;;;4.95;;
31652;SDS011;18261;53.648;9.910;2022-10-17T00:33:46;17.02;;;5.35;;
31652;SDS011;18261;53.648;9.910;2022-10-17T00:38:38;14.30;;;5.13;;
31652;SDS011;18261;53.648;9.910;2022-10-17T00:41:05;11.35;;;5.13;;
31652;SDS011;18261;53.648;9.910;2022-10-17T00:46:15;19.33;;;4.60;;
31652;SDS011;18261;53.648;9.910;2022-10-17T00:48:41;12.02;;;4.63;;
31652;SDS011;18261;53.648;9.910;2022-10-17T00:51:08;14.57;;;5.28;;
31652;SDS011;18261;53.648;9.910;2022-10-17T00:53:34;20.25;;;5.40;;
31652;SDS011;18261;53.648;9.910;2022-10-17T00:56:01;17.95;;;4.95;;
31652;SDS011;18261;53.648;9.910;2022-10-17T00:58:27;13.00;;;4.43;;
31652;SDS011;18261;53.648;9.910;2022-10-17T01:00:53;15.02;;;4.80;;
31652;SDS011;18261;53.648;9.910;2022-10-17T01:03:19;12.23;;;4.10;;
31652;SDS011;18261;53.648;9.910;2022-10-17T01:05:45;14.35;;;4.28;;
31652;SDS011;18261;53.648;9.910;2022-10-17T01:08:11;14.57;;;4.35;;
31652;SDS011;18261;53.648;9.910;2022-10-17T01:10:54;19.33;;;4.53;;
31652;SDS011;18261;53.648;9.910;2022-10-17T01:13:26;19.27;;;4.53;;
31652;SDS011;18261;53.648;9.910;2022-10-17T01:26:13;15.65;;;4.18;;
31652;SDS011;18261;53.648;9.910;2022-10-17T01:29:15;16.15;;;4.10;;
31652;SDS011;18261;53.648;9.910;2022-10-17T01:31:40;13.48;;;3.95;;
31652;SDS011;18261;53.648;9.910;2022-10-17T01:39:03;15.57;;;3.58;;
31652;SDS011;18261;53.648;9.910;2022-10-17T01:41:38;19.40;;;4.60;;
31652;SDS011;18261;53.648;9.910;2022-10-17T01:46:43;14.50;;;3.78;;
31652;SDS011;18261;53.648;9.910;2022-10-17T01:49:10;21.52;;;4.60;;
31652;SDS011;18261;53.648;9.910;2022-10-17T01:54:12;12.23;;;3.40;;
31652;SDS011;18261;53.648;9.910;2022-10-17T01:56:39;11.60;;;3.55;;
31652;SDS011;18261;53.648;9.910;2022-10-17T01:59:09;10.02;;;3.28;;
31652;SDS011;18261;53.648;9.910;2022-10-17T02:01:36;17.02;;;3.63;;
31652;SDS011;18261;53.648;9.910;2022-10-17T02:04:03;17.60;;;3.65;;
31652;SDS011;18261;53.648;9.910;2022-10-17T02:06:33;18.00;;;3.55;;
31652;SDS011;18261;53.648;9.910;2022-10-17T02:08:59;18.45;;;3.85;;
31652;SDS011;18261;53.648;9.910;2022-10-17T02:11:26;11.82;;;3.47;;
31652;SDS011;18261;53.648;9.910;2022-10-17T02:13:56;17.20;;;3.30;;
31652;SDS011;18261;53.648;9.910;2022-10-17T02:16:34;16.65;;;3.38;;
31652;SDS011;18261;53.648;9.910;2022-10-17T02:21:50;10.60;;;3.35;;
31652;SDS011;18261;53.648;9.910;2022-10-17T02:24:27;11.45;;;3.13;;
31652;SDS011;18261;53.648;9.910;2022-10-17T02:26:59;11.10;;;3.28;;
31652;SDS011;18261;53.648;9.910;2022-10-17T02:29:30;15.23;;;4.15;;
31652;SDS011;18261;53.648;9.910;2022-10-17T02:32:02;9.20;;;2.85;;
31652;SDS011;18261;53.648;9.910;2022-10-17T02:37:02;12.43;;;3.20;;
31652;SDS011;18261;53.648;9.910;2022-10-17T02:39:29;9.23;;;3.38;;
31652;SDS011;18261;53.648;9.910;2022-10-17T02:41:56;14.45;;;3.00;;
31652;SDS011;18261;53.648;9.910;2022-10-17T02:44:23;18.25;;;3.65;;
31652;SDS011;18261;53.648;9.910;2022-10-17T02:46:55;22.73;;;4.30;;
31652;SDS011;18261;53.648;9.910;2022-10-17T02:49:27;13.38;;;3.42;;
31652;SDS011;18261;53.648;9.910;2022-10-17T02:52:08;12.23;;;3.15;;
31652;SDS011;18261;53.648;9.910;2022-10-17T02:54:37;17.45;;;3.40;;
31652;SDS011;18261;53.648;9.910;2022-10-17T02:57:07;10.38;;;3.40;;
31652;SDS011;18261;53.648;9.910;2022-10-17T02:59:35;11.75;;;3.10;;
31652;SDS011;18261;53.648;9.910;2022-10-17T03:02:04;11.98;;;3.15;;
31652;SDS011;18261;53.648;9.910;2022-10-17T03:04:31;12.18;;;3.20;;
31652;SDS011;18261;53.648;9.910;2022-10-17T03:06:57;10.88;;;3.08;;
31652;SDS011;18261;53.648;9.910;2022-10-17T03:09:23;13.20;;;2.90;;
31652;SDS011;18261;53.648;9.910;2022-10-17T03:11:49;10.30;;;3.13;;
31652;SDS011;18261;53.648;9.910;2022-10-17T03:14:15;6.95;;;2.30;;
31652;SDS011;18261;53.648;9.910;2022-10-17T03:16:41;6.30;;;2.72;;
31652;SDS011;18261;53.648;9.910;2022-10-17T03:19:07;9.57;;;2.80;;
31652;SDS011;18261;53.648;9.910;2022-10-17T03:21:33;12.73;;;2.60;;
31652;SDS011;18261;53.648;9.910;2022-10-17T03:24:00;12.45;;;3.30;;
31652;SDS011;18261;53.648;9.910;2022-10-17T03:26:26;12.30;;;2.85;;
31652;SDS011;18261;53.648;9.910;2022-10-17T03:28:53;14.60;;;2.55;;
31652;SDS011;18261;53.648;9.910;2022-10-17T03:31:19;7.97;;;2.83;;
31652;SDS011;18261;53.648;9.910;2022-10-17T03:33:45;6.95;;;2.38;;
31652;SDS011;18261;53.648;9.910;2022-10-17T03:36:13;13.23;;;3.03;;
31652;SDS011;18261;53.648;9.910;2022-10-17T03:38:39;11.40;;;3.05;;
31652;SDS011;18261;53.648;9.910;2022-10-17T03:41:05;12.30;;;2.72;;
31652;SDS011;18261;53.648;9.910;2022-10-17T03:43:31;9.77;;;2.55;;
31652;SDS011;18261;53.648;9.910;2022-10-17T03:45:57;10.48;;;3.03;;
31652;SDS011;18261;53.648;9.910;2022-10-17T03:48:23;9.90;;;2.70;;
31652;SDS011;18261;53.648;9.910;2022-10-17T03:50:50;6.07;;;2.90;;
31652;SDS011;18261;53.648;9.910;2022-10-17T03:53:15;9.98;;;2.60;;
31652;SDS011;18261;53.648;9.910;2022-10-17T03:55:42;8.35;;;2.58;;
31652;SDS011;18261;53.648;9.910;2022-10-17T03:58:08;14.38;;;3.40;;
31652;SDS011;18261;53.648;9.910;2022-10-17T04:00:34;12.05;;;2.95;;
31652;SDS011;18261;53.648;9.910;2022-10-17T04:03:00;7.28;;;2.53;;
31652;SDS011;18261;53.648;9.910;2022-10-17T04:05:26;7.07;;;2.60;;
31652;SDS011;18261;53.648;9.910;2022-10-17T04:07:52;15.45;;;3.03;;
31652;SDS011;18261;53.648;9.910;2022-10-17T04:10:18;10.52;;;2.67;;
31652;SDS011;18261;53.648;9.910;2022-10-17T04:12:44;11.95;;;2.83;;
31652;SDS011;18261;53.648;9.910;2022-10-17T04:15:10;11.85;;;3.13;;
31652;SDS011;18261;53.648;9.910;2022-10-17T04:17:36;13.00;;;3.83;;
31652;SDS011;18261;53.648;9.910;2022-10-17T04:20:02;6.85;;;2.80;;
31652;SDS011;18261;53.648;9.910;2022-10-17T04:22:28;8.43;;;2.95;;
31652;SDS011;18261;53.648;9.910;2022-10-17T04:24:54;12.35;;;3.10;;
31652;SDS011;18261;53.648;9.910;2022-10-17T04:27:20;20.15;;;2.60;;
31652;SDS011;18261;53.648;9.910;2022-10-17T04:29:46;16.50;;;2.83;;
31652;SDS011;18261;53.648;9.910;2022-10-17T04:32:12;12.40;;;2.80;;
31652;SDS011;18261;53.648;9.910;2022-10-17T04:34:39;7.93;;;2.53;;
31652;SDS011;18261;53.648;9.910;2022-10-17T04:37:04;11.70;;;3.08;;
31652;SDS011;18261;53.648;9.910;2022-10-17T04:39:31;13.57;;;3.08;;
31652;SDS011;18261;53.648;9.910;2022-10-17T04:41:56;10.95;;;3.22;;
31652;SDS011;18261;53.648;9.910;2022-10-17T04:44:22;15.35;;;3.08;;
31652;SDS011;18261;53.648;9.910;2022-10-17T04:46:48;6.75;;;2.88;;
31652;SDS011;18261;53.648;9.910;2022-10-17T04:49:14;8.77;;;2.90;;
31652;SDS011;18261;53.648;9.910;2022-10-17T04:51:40;9.43;;;2.83;;
31652;SDS011;18261;53.648;9.910;2022-10-17T04:54:06;5.75;;;2.47;;
31652;SDS011;18261;53.648;9.910;2022-10-17T04:56:32;10.18;;;2.83;;
31652;SDS011;18261;53.648;9.910;2022-10-17T04:58:58;10.15;;;2.95;;
31652;SDS011;18261;53.648;9.910;2022-10-17T05:01:24;8.90;;;2.55;;
31652;SDS011;18261;53.648;9.910;2022-10-17T05:03:51;13.40;;;2.83;;
31652;SDS011;18261;53.648;9.910;2022-10-17T05:06:18;5.60;;;2.63;;
31652;SDS011;18261;53.648;9.910;2022-10-17T05:08:44;14.15;;;2.60;;
31652;SDS011;18261;53.648;9.910;2022-10-17T05:11:21;5.53;;;2.63;;
31652;SDS011;18261;53.648;9.910;2022-10-17T05:14:05;7.00;;;2.65;;
31652;SDS011;18261;53.648;9.910;2022-10-17T05:16:31;7.38;;;2.67;;
31652;SDS011;18261;53.648;9.910;2022-10-17T05:18:57;8.85;;;2.50;;
31652;SDS011;18261;53.648;9.910;2022-10-17T05:21:24;10.20;;;3.60;;
31652;SDS011;18261;53.648;9.910;2022-10-17T05:23:50;9.80;;;2.92;;
31652;SDS011;18261;53.648;9.910;2022-10-17T05:26:16;10.45;;;2.63;;
31652;SDS011;18261;53.648;9.910;2022-10-17T05:28:42;8.88;;;2.65;;
31652;SDS011;18261;53.648;9.910;2022-10-17T05:31:09;12.25;;;2.67;;
31652;SDS011;18261;53.648;9.910;2022-10-17T05:33:35;11.77;;;3.15;;
31652;SDS011;18261;53.648;9.910;2022-10-17T05:36:01;6.40;;;2.97;;
31652;SDS011;18261;53.648;9.910;2022-10-17T05:38:28;6.00;;;2.80;;
31652;SDS011;18261;53.648;9.910;2022-10-17T05:40:57;9.85;;;2.63;;
31652;SDS011;18261;53.648;9.910;2022-10-17T05:43:24;10.43;;;2.85;;
31652;SDS011;18261;53.648;9.910;2022-10-17T05:45:50;6.28;;;2.53;;
31652;SDS011;18261;53.648;9.910;2022-10-17T05:48:16;7.28;;;2.97;;
31652;SDS011;18261;53.648;9.910;2022-10-17T05:50:42;7.13;;;2.92;;
31652;SDS011;18261;53.648;9.910;2022-10-17T05:53:08;14.63;;;2.55;;
31652;SDS011;18261;53.648;9.910;2022-10-17T05:55:34;6.15;;;2.80;;
31652;SDS011;18261;53.648;9.910;2022-10-17T05:58:00;7.72;;;3.08;;
31652;SDS011;18261;53.648;9.910;2022-10-17T06:00:26;11.88;;;2.75;;
31652;SDS011;18261;53.648;9.910;2022-10-17T06:02:52;8.32;;;2.80;;
31652;SDS011;18261;53.648;9.910;2022-10-17T06:05:18;8.35;;;2.50;;
31652;SDS011;18261;53.648;9.910;2022-10-17T06:07:45;6.95;;;2.90;;
31652;SDS011;18261;53.648;9.910;2022-10-17T06:10:11;11.07;;;3.08;;
31652;SDS011;18261;53.648;9.910;2022-10-17T06:12:38;6.25;;;2.65;;
31652;SDS011;18261;53.648;9.910;2022-10-17T06:15:05;12.05;;;3.63;;
31652;SDS011;18261;53.648;9.910;2022-10-17T06:17:31;13.77;;;3.38;;
31652;SDS011;18261;53.648;9.910;2022-10-17T06:19:57;6.35;;;3.08;;
31652;SDS011;18261;53.648;9.910;2022-10-17T06:22:23;8.82;;;3.10;;
31652;SDS011;18261;53.648;9.910;2022-10-17T06:24:49;9.00;;;3.42;;
31652;SDS011;18261;53.648;9.910;2022-10-17T06:27:16;9.48;;;4.13;;
31652;SDS011;18261;53.648;9.910;2022-10-17T06:29:42;12.18;;;3.70;;
31652;SDS011;18261;53.648;9.910;2022-10-17T06:32:08;14.52;;;3.85;;
31652;SDS011;18261;53.648;9.910;2022-10-17T06:34:34;6.80;;;3.10;;
31652;SDS011;18261;53.648;9.910;2022-10-17T06:37:00;14.85;;;3.90;;
31652;SDS011;18261;53.648;9.910;2022-10-17T06:39:26;9.70;;;3.55;;
31652;SDS011;18261;53.648;9.910;2022-10-17T06:41:57;8.68;;;3.30;;
31652;SDS011;18261;53.648;9.910;2022-10-17T06:44:23;9.77;;;3.22;;
31652;SDS011;18261;53.648;9.910;2022-10-17T06:46:52;6.90;;;3.08;;
31652;SDS011;18261;53.648;9.910;2022-10-17T06:49:18;7.88;;;3.38;;
31652;SDS011;18261;53.648;9.910;2022-10-17T06:51:44;9.18;;;3.33;;
31652;SDS011;18261;53.648;9.910;2022-10-17T06:54:10;6.28;;;3.30;;
31652;SDS011;18261;53.648;9.910;2022-10-17T06:56:36;5.97;;;2.97;;
31652;SDS011;18261;53.648;9.910;2022-10-17T06:59:02;6.55;;;3.03;;
31652;SDS011;18261;53.648;9.910;2022-10-17T07:01:29;8.75;;;3.33;;
31652;SDS011;18261;53.648;9.910;2022-10-17T07:03:55;12.85;;;3.60;;
31652;SDS011;18261;53.648;9.910;2022-10-17T07:06:21;10.52;;;3.42;;
31652;SDS011;18261;53.648;9.910;2022-10-17T07:08:48;20.77;;;6.90;;
31652;SDS011;18261;53.648;9.910;2022-10-17T07:11:16;12.57;;;4.43;;
31652;SDS011;18261;53.648;9.910;2022-10-17T07:13:42;14.50;;;4.60;;
31652;SDS011;18261;53.648;9.910;2022-10-17T07:16:08;9.48;;;4.10;;
31652;SDS011;18261;53.648;9.910;2022-10-17T07:18:34;13.10;;;4.25;;
31652;SDS011;18261;53.648;9.910;2022-10-17T07:21:00;22.38;;;4.80;;
31652;SDS011;18261;53.648;9.910;2022-10-17T07:23:27;7.15;;;3.20;;
31652;SDS011;18261;53.648;9.910;2022-10-17T07:26:00;6.65;;;3.45;;
31652;SDS011;18261;53.648;9.910;2022-10-17T07:28:26;13.10;;;5.03;;
31652;SDS011;18261;53.648;9.910;2022-10-17T07:30:53;11.27;;;5.03;;
31652;SDS011;18261;53.648;9.910;2022-10-17T07:33:19;9.13;;;4.18;;
31652;SDS011;18261;53.648;9.910;2022-10-17T07:35:45;11.93;;;3.30;;
31652;SDS011;18261;53.648;9.910;2022-10-17T07:38:11;8.98;;;3.03;;
31652;SDS011;18261;53.648;9.910;2022-10-17T07:40:36;14.52;;;3.55;;
31652;SDS011;18261;53.648;9.910;2022-10-17T07:43:02;13.48;;;3.60;;
31652;SDS011;18261;53.648;9.910;2022-10-17T07:45:28;10.20;;;4.22;;
31652;SDS011;18261;53.648;9.910;2022-10-17T07:47:55;16.23;;;3.50;;
31652;SDS011;18261;53.648;9.910;2022-10-17T07:50:21;14.65;;;3.55;;
31652;SDS011;18261;53.648;9.910;2022-10-17T07:52:47;11.10;;;3.58;;
31652;SDS011;18261;53.648;9.910;2022-10-17T07:55:13;9.75;;;3.22;;
31652;SDS011;18261;53.648;9.910;2022-10-17T07:57:39;11.98;;;3.50;;
31652;SDS011;18261;53.648;9.910;2022-10-17T08:00:06;9.98;;;3.60;;
31652;SDS011;18261;53.648;9.910;2022-10-17T08:02:32;5.35;;;3.00;;
31652;SDS011;18261;53.648;9.910;2022-10-17T08:04:58;10.07;;;4.53;;
31652;SDS011;18261;53.648;9.910;2022-10-17T08:07:24;8.93;;;3.67;;
31652;SDS011;18261;53.648;9.910;2022-10-17T08:09:50;7.75;;;3.53;;
31652;SDS011;18261;53.648;9.910;2022-10-17T08:12:16;7.32;;;2.95;;
31652;SDS011;18261;53.648;9.910;2022-10-17T08:14:42;6.10;;;3.22;;
31652;SDS011;18261;53.648;9.910;2022-10-17T08:17:08;12.75;;;3.08;;
31652;SDS011;18261;53.648;9.910;2022-10-17T08:19:38;9.48;;;3.92;;
31652;SDS011;18261;53.648;9.910;2022-10-17T08:22:04;10.40;;;3.45;;
31652;SDS011;18261;53.648;9.910;2022-10-17T08:24:30;11.25;;;3.33;;
31652;SDS011;18261;53.648;9.910;2022-10-17T08:26:56;12.05;;;3.70;;
31652;SDS011;18261;53.648;9.910;2022-10-17T08:29:22;13.77;;;4.15;;
31652;SDS011;18261;53.648;9.910;2022-10-17T08:31:49;12.20;;;3.10;;
31652;SDS011;18261;53.648;9.910;2022-10-17T08:34:15;7.15;;;3.13;;
31652;SDS011;18261;53.648;9.910;2022-10-17T08:36:41;7.55;;;3.00;;
31652;SDS011;18261;53.648;9.910;2022-10-17T08:39:07;9.20;;;2.83;;
31652;SDS011;18261;53.648;9.910;2022-10-17T08:46:45;10.45;;;3.10;;
31652;SDS011;18261;53.648;9.910;2022-10-17T08:49:13;10.43;;;3.40;;
31652;SDS011;18261;53.648;9.910;2022-10-17T08:52:03;7.78;;;3.42;;
31652;SDS011;18261;53.648;9.910;2022-10-17T08:55:00;12.73;;;3.75;;
31652;SDS011;18261;53.648;9.910;2022-10-17T08:57:19;19.38;;;3.42;;
31652;SDS011;18261;53.648;9.910;2022-10-17T08:59:48;12.45;;;4.38;;
31652;SDS011;18261;53.648;9.910;2022-10-17T09:05:06;6.25;;;3.28;;
31652;SDS011;18261;53.648;9.910;2022-10-17T09:07:46;8.73;;;3.15;;
31652;SDS011;18261;53.648;9.910;2022-10-17T09:10:25;14.48;;;3.35;;
31652;SDS011;18261;53.648;9.910;2022-10-17T09:15:43;13.50;;;3.63;;
31652;SDS011;18261;53.648;9.910;2022-10-17T09:18:14;11.77;;;3.03;;
31652;SDS011;18261;53.648;9.910;2022-10-17T09:20:54;6.93;;;3.30;;
31652;SDS011;18261;53.648;9.910;2022-10-17T09:23:23;9.52;;;3.20;;
31652;SDS011;18261;53.648;9.910;2022-10-17T09:25:54;5.78;;;3.20;;
31652;SDS011;18261;53.648;9.910;2022-10-17T09:28:23;9.93;;;3.22;;
31652;SDS011;18261;53.648;9.910;2022-10-17T09:30:55;9.65;;;3.53;;
31652;SDS011;18261;53.648;9.910;2022-10-17T09:33:25;7.55;;;2.90;;
31652;SDS011;18261;53.648;9.910;2022-10-17T09:35:52;7.45;;;2.80;;
31652;SDS011;18261;53.648;9.910;2022-10-17T09:38:19;12.20;;;4.00;;
31652;SDS011;18261;53.648;9.910;2022-10-17T09:40:56;9.00;;;3.22;;
31652;SDS011;18261;53.648;9.910;2022-10-17T09:43:23;11.18;;;3.22;;
31652;SDS011;18261;53.648;9.910;2022-10-17T09:45:58;14.02;;;4.00;;
31652;SDS011;18261;53.648;9.910;2022-10-17T09:48:44;10.93;;;3.08;;
31652;SDS011;18261;53.648;9.910;2022-10-17T09:51:11;10.52;;;3.00;;
31652;SDS011;18261;53.648;9.910;2022-10-17T09:53:38;9.10;;;3.30;;
31652;SDS011;18261;53.648;9.910;2022-10-17T09:56:10;13.52;;;2.80;;
31652;SDS011;18261;53.648;9.910;2022-10-17T10:01:16;17.05;;;3.65;;
31652;SDS011;18261;53.648;9.910;2022-10-17T10:03:43;10.02;;;3.38;;
31652;SDS011;18261;53.648;9.910;2022-10-17T10:06:13;8.40;;;3.25;;
31652;SDS011;18261;53.648;9.910;2022-10-17T10:11:14;14.85;;;3.75;;
31652;SDS011;18261;53.648;9.910;2022-10-17T10:13:41;8.20;;;3.78;;
31652;SDS011;18261;53.648;9.910;2022-10-17T10:18:43;13.32;;;3.50;;
31652;SDS011;18261;53.648;9.910;2022-10-17T10:23:42;10.40;;;3.42;;
31652;SDS011;18261;53.648;9.910;2022-10-17T10:26:21;11.73;;;3.83;;
31652;SDS011;18261;53.648;9.910;2022-10-17T10:28:52;10.48;;;4.07;;
31652;SDS011;18261;53.648;9.910;2022-10-17T10:31:24;12.73;;;3.97;;
31652;SDS011;18261;53.648;9.910;2022-10-17T10:33:50;15.65;;;3.78;;
31652;SDS011;18261;53.648;9.910;2022-10-17T10:36:16;13.95;;;3.85;;
31652;SDS011;18261;53.648;9.910;2022-10-17T10:38:50;16.42;;;3.70;;
31652;SDS011;18261;53.648;9.910;2022-10-17T10:41:19;14.70;;;3.63;;
31652;SDS011;18261;53.648;9.910;2022-10-17T10:43:46;11.00;;;3.33;;
31652;SDS011;18261;53.648;9.910;2022-10-17T10:46:22;19.05;;;3.90;;
31652;SDS011;18261;53.648;9.910;2022-10-17T10:48:50;12.10;;;3.75;;
31652;SDS011;18261;53.648;9.910;2022-10-17T10:51:17;13.45;;;3.90;;
31652;SDS011;18261;53.648;9.910;2022-10-17T10:53:54;17.35;;;4.20;;
31652;SDS011;18261;53.648;9.910;2022-10-17T10:56:28;13.93;;;4.00;;
31652;SDS011;18261;53.648;9.910;2022-10-17T11:01:51;11.20;;;4.25;;
31652;SDS011;18261;53.648;9.910;2022-10-17T11:07:01;14.82;;;3.67;;
31652;SDS011;18261;53.648;9.910;2022-10-17T11:09:47;19.73;;;3.90;;
31652;SDS011;18261;53.648;9.910;2022-10-17T11:17:27;11.30;;;3.85;;
31652;SDS011;18261;53.648;9.910;2022-10-17T11:19:58;16.10;;;3.85;;
31652;SDS011;18261;53.648;9.910;2022-10-17T11:22:26;12.23;;;3.97;;
31652;SDS011;18261;53.648;9.910;2022-10-17T11:27:23;15.13;;;4.13;;
31652;SDS011;18261;53.648;9.910;2022-10-17T11:29:50;13.50;;;3.90;;
31652;SDS011;18261;53.648;9.910;2022-10-17T11:34:46;10.15;;;3.35;;
31652;SDS011;18261;53.648;9.910;2022-10-17T11:37:22;11.57;;;3.90;;
31652;SDS011;18261;53.648;9.910;2022-10-17T11:42:20;9.13;;;3.80;;
31652;SDS011;18261;53.648;9.910;2022-10-17T11:44:49;10.95;;;3.47;;
31652;SDS011;18261;53.648;9.910;2022-10-17T11:49:44;9.15;;;4.25;;
31652;SDS011;18261;53.648;9.910;2022-10-17T11:54:42;7.75;;;3.63;;
31652;SDS011;18261;53.648;9.910;2022-10-17T12:02:36;16.75;;;3.97;;
31652;SDS011;18261;53.648;9.910;2022-10-17T12:05:12;9.43;;;3.67;;
31652;SDS011;18261;53.648;9.910;2022-10-17T12:07:45;9.65;;;3.90;;
31652;SDS011;18261;53.648;9.910;2022-10-17T12:10:19;18.65;;;5.22;;
31652;SDS011;18261;53.648;9.910;2022-10-17T12:12:49;6.45;;;3.92;;
31652;SDS011;18261;53.648;9.910;2022-10-17T12:17:45;9.85;;;4.55;;
31652;SDS011;18261;53.648;9.910;2022-10-17T12:22:49;17.75;;;5.10;;
31652;SDS011;18261;53.648;9.910;2022-10-17T12:25:17;11.35;;;5.60;;
31652;SDS011;18261;53.648;9.910;2022-10-17T12:27:44;17.98;;;9.05;;
31652;SDS011;18261;53.648;9.910;2022-10-17T12:32:53;11.40;;;5.38;;
31652;SDS011;18261;53.648;9.910;2022-10-17T12:35:21;14.35;;;5.15;;
31652;SDS011;18261;53.648;9.910;2022-10-17T12:42:58;11.57;;;5.82;;
31652;SDS011;18261;53.648;9.910;2022-10-17T12:48:10;15.63;;;5.70;;
31652;SDS011;18261;53.648;9.910;2022-10-17T12:51:21;14.88;;;6.25;;
31652;SDS011;18261;53.648;9.910;2022-10-17T12:53:22;14.45;;;5.43;;
31652;SDS011;18261;53.648;9.910;2022-10-17T12:55:49;10.75;;;5.82;;
31652;SDS011;18261;53.648;9.910;2022-10-17T12:58:23;16.38;;;6.50;;
31652;SDS011;18261;53.648;9.910;2022-10-17T13:00:50;12.38;;;6.18;;
31652;SDS011;18261;53.648;9.910;2022-10-17T13:03:18;17.20;;;6.57;;
31652;SDS011;18261;53.648;9.910;2022-10-17T13:05:47;19.17;;;7.57;;
31652;SDS011;18261;53.648;9.910;2022-10-17T13:08:15;12.35;;;7.18;;
31652;SDS011;18261;53.648;9.910;2022-10-17T13:10:43;18.55;;;7.28;;
31652;SDS011;18261;53.648;9.910;2022-10-17T13:15:39;14.40;;;6.47;;
31652;SDS011;18261;53.648;9.910;2022-10-17T13:18:12;13.18;;;6.30;;
31652;SDS011;18261;53.648;9.910;2022-10-17T13:20:41;17.70;;;6.97;;
31652;SDS011;18261;53.648;9.910;2022-10-17T13:23:21;17.55;;;7.97;;
31652;SDS011;18261;53.648;9.910;2022-10-17T13:25:47;16.48;;;6.85;;
31652;SDS011;18261;53.648;9.910;2022-10-17T13:28:13;11.25;;;7.05;;
31652;SDS011;18261;53.648;9.910;2022-10-17T13:30:39;12.43;;;7.20;;
31652;SDS011;18261;53.648;9.910;2022-10-17T13:33:16;14.80;;;7.80;;
31652;SDS011;18261;53.648;9.910;2022-10-17T13:35:43;15.35;;;9.43;;
31652;SDS011;18261;53.648;9.910;2022-10-17T13:38:09;22.05;;;9.02;;
31652;SDS011;18261;53.648;9.910;2022-10-17T13:40:39;17.75;;;8.05;;
31652;SDS011;18261;53.648;9.910;2022-10-17T13:43:09;12.70;;;8.57;;
31652;SDS011;18261;53.648;9.910;2022-10-17T13:45:38;16.17;;;8.35;;
31652;SDS011;18261;53.648;9.910;2022-10-17T13:48:07;19.25;;;8.90;;
31652;SDS011;18261;53.648;9.910;2022-10-17T13:50:41;18.88;;;10.45;;
31652;SDS011;18261;53.648;9.910;2022-10-17T13:53:14;18.30;;;10.25;;
31652;SDS011;18261;53.648;9.910;2022-10-17T13:58:43;25.42;;;12.13;;
31652;SDS011;18261;53.648;9.910;2022-10-17T14:01:10;20.92;;;11.00;;
31652;SDS011;18261;53.648;9.910;2022-10-17T14:03:37;18.92;;;9.75;;
31652;SDS011;18261;53.648;9.910;2022-10-17T14:06:10;21.48;;;9.38;;
31652;SDS011;18261;53.648;9.910;2022-10-17T14:08:37;20.38;;;10.02;;
31652;SDS011;18261;53.648;9.910;2022-10-17T14:11:14;22.08;;;10.10;;
31652;SDS011;18261;53.648;9.910;2022-10-17T14:13:42;17.90;;;8.77;;
31652;SDS011;18261;53.648;9.910;2022-10-17T14:16:12;15.50;;;8.80;;
31652;SDS011;18261;53.648;9.910;2022-10-17T14:18:38;16.02;;;9.10;;
31652;SDS011;18261;53.648;9.910;2022-10-17T14:21:05;15.43;;;9.20;;
31652;SDS011;18261;53.648;9.910;2022-10-17T14:23:33;15.38;;;8.73;;
31652;SDS011;18261;53.648;9.910;2022-10-17T14:29:23;27.75;;;10.38;;
31652;SDS011;18261;53.648;9.910;2022-10-17T14:31:47;23.98;;;12.35;;
31652;SDS011;18261;53.648;9.910;2022-10-17T14:34:21;18.83;;;10.70;;
31652;SDS011;18261;53.648;9.910;2022-10-17T14:36:48;16.35;;;10.52;;
31652;SDS011;18261;53.648;9.910;2022-10-17T14:39:22;19.63;;;13.02;;
31652;SDS011;18261;53.648;9.910;2022-10-17T14:41:49;28.67;;;15.90;;
31652;SDS011;18261;53.648;9.910;2022-10-17T14:44:37;15.40;;;9.45;;
31652;SDS011;18261;53.648;9.910;2022-10-17T14:47:03;20.25;;;9.90;;
31652;SDS011;18261;53.648;9.910;2022-10-17T14:49:35;19.75;;;9.43;;
31652;SDS011;18261;53.648;9.910;2022-10-17T14:54:40;18.33;;;11.40;;
31652;SDS011;18261;53.648;9.910;2022-10-17T15:02:29;24.95;;;10.45;;
31652;SDS011;18261;53.648;9.910;2022-10-17T15:04:55;22.23;;;11.32;;
31652;SDS011;18261;53.648;9.910;2022-10-17T15:07:21;21.15;;;11.05;;
31652;SDS011;18261;53.648;9.910;2022-10-17T15:09:49;19.20;;;11.25;;
31652;SDS011;18261;53.648;9.910;2022-10-17T15:12:20;30.17;;;11.68;;
31652;SDS011;18261;53.648;9.910;2022-10-17T15:14:46;29.35;;;13.13;;
31652;SDS011;18261;53.648;9.910;2022-10-17T15:17:14;18.42;;;11.90;;
31652;SDS011;18261;53.648;9.910;2022-10-17T15:19:40;22.83;;;12.93;;
31652;SDS011;18261;53.648;9.910;2022-10-17T15:22:06;19.98;;;11.73;;
31652;SDS011;18261;53.648;9.910;2022-10-17T15:24:32;20.90;;;11.77;;
31652;SDS011;18261;53.648;9.910;2022-10-17T15:26:58;23.20;;;12.80;;
31652;SDS011;18261;53.648;9.910;2022-10-17T15:29:24;19.90;;;12.05;;
31652;SDS011;18261;53.648;9.910;2022-10-17T15:31:50;22.50;;;13.98;;
31652;SDS011;18261;53.648;9.910;2022-10-17T15:34:16;27.20;;;13.93;;
31652;SDS011;18261;53.648;9.910;2022-10-17T15:36:46;25.25;;;13.90;;
31652;SDS011;18261;53.648;9.910;2022-10-17T15:39:13;19.80;;;13.55;;
31652;SDS011;18261;53.648;9.910;2022-10-17T15:41:39;20.67;;;13.18;;
31652;SDS011;18261;53.648;9.910;2022-10-17T15:44:05;21.35;;;13.90;;
31652;SDS011;18261;53.648;9.910;2022-10-17T15:46:31;22.02;;;14.00;;
31652;SDS011;18261;53.648;9.910;2022-10-17T15:49:00;21.10;;;13.98;;
31652;SDS011;18261;53.648;9.910;2022-10-17T15:51:26;22.55;;;14.20;;
31652;SDS011;18261;53.648;9.910;2022-10-17T15:53:52;25.48;;;15.32;;
31652;SDS011;18261;53.648;9.910;2022-10-17T15:56:25;22.85;;;14.65;;
31652;SDS011;18261;53.648;9.910;2022-10-17T15:58:53;28.33;;;15.80;;
31652;SDS011;18261;53.648;9.910;2022-10-17T16:01:22;28.20;;;13.82;;
31652;SDS011;18261;53.648;9.910;2022-10-17T16:03:49;22.02;;;14.57;;
31652;SDS011;18261;53.648;9.910;2022-10-17T16:06:16;26.38;;;14.60;;
31652;SDS011;18261;53.648;9.910;2022-10-17T16:08:42;18.42;;;13.60;;
31652;SDS011;18261;53.648;9.910;2022-10-17T16:11:18;20.27;;;13.43;;
31652;SDS011;18261;53.648;9.910;2022-10-17T16:13:48;21.60;;;14.52;;
31652;SDS011;18261;53.648;9.910;2022-10-17T16:16:15;20.08;;;14.85;;
31652;SDS011;18261;53.648;9.910;2022-10-17T16:18:41;24.35;;;12.23;;
31652;SDS011;18261;53.648;9.910;2022-10-17T16:21:09;25.58;;;13.57;;
31652;SDS011;18261;53.648;9.910;2022-10-17T16:23:36;19.55;;;13.27;;
31652;SDS011;18261;53.648;9.910;2022-10-17T16:26:02;27.83;;;13.93;;
31652;SDS011;18261;53.648;9.910;2022-10-17T16:28:28;26.10;;;15.50;;
31652;SDS011;18261;53.648;9.910;2022-10-17T16:30:54;20.67;;;13.20;;
31652;SDS011;18261;53.648;9.910;2022-10-17T16:33:20;15.65;;;11.60;;
31652;SDS011;18261;53.648;9.910;2022-10-17T16:35:46;18.02;;;12.55;;